sensor_id;sensor_type;location;lat;lon;timestamp;P1;durP1;ratioP1;P2;durP2;ratioP2
16115;SDS011;8162;47.104;15.432;2023-04-25T00:02:50;7.37;;;3.83;;
16115;SDS011;8162;47.104;15.432;2023-04-25T00:05:51;5.50;;;4.30;;
16115;SDS011;8162;47.104;15.432;2023-04-25T00:08:52;6.57;;;3.87;;
16115;SDS011;8162;47.104;15.432;2023-04-25T00:11:55;6.50;;;3.50;;
16115;SDS011;8162;47.104;15.432;2023-04-25T00:14:56;4.30;;;3.73;;
16115;SDS011;8162;47.104;15.432;2023-04-25T00:17:58;4.90;;;4.00;;
16115;SDS011;8162;47.104;15.432;2023-04-25T00:20:59;6.00;;;3.90;;
16115;SDS011;8162;47.104;15.432;2023-04-25T00:24:00;4.43;;;3.87;;
16115;SDS011;8162;47.104;15.432;2023-04-25T00:27:01;5.37;;;3.80;;
16115;SDS011;8162;47.104;15.432;2023-04-25T00:30:02;4.50;;;3.53;;
16115;SDS011;8162;47.104;15.432;2023-04-25T00:33:03;4.77;;;4.17;;
16115;SDS011;8162;47.104;15.432;2023-04-25T00:36:05;5.67;;;5.17;;
16115;SDS011;8162;47.104;15.432;2023-04-25T00:39:06;6.27;;;5.00;;
16115;SDS011;8162;47.104;15.432;2023-04-25T00:42:07;5.43;;;4.93;;
16115;SDS011;8162;47.104;15.432;2023-04-25T00:45:08;5.80;;;5.20;;
16115;SDS011;8162;47.104;15.432;2023-04-25T00:48:14;7.70;;;5.23;;
16115;SDS011;8162;47.104;15.432;2023-04-25T00:51:18;7.83;;;5.07;;
16115;SDS011;8162;47.104;15.432;2023-04-25T00:54:20;6.27;;;5.40;;
16115;SDS011;8162;47.104;15.432;2023-04-25T00:57:21;6.67;;;5.57;;
16115;SDS011;8162;47.104;15.432;2023-04-25T01:00:22;8.47;;;5.63;;
16115;SDS011;8162;47.104;15.432;2023-04-25T01:03:23;6.53;;;5.43;;
16115;SDS011;8162;47.104;15.432;2023-04-25T01:06:24;7.83;;;6.03;;
16115;SDS011;8162;47.104;15.432;2023-04-25T01:09:25;10.07;;;4.90;;
16115;SDS011;8162;47.104;15.432;2023-04-25T01:12:26;4.67;;;4.17;;
16115;SDS011;8162;47.104;15.432;2023-04-25T01:15:27;5.50;;;4.70;;
16115;SDS011;8162;47.104;15.432;2023-04-25T01:18:29;7.07;;;6.23;;
16115;SDS011;8162;47.104;15.432;2023-04-25T01:21:30;7.17;;;6.23;;
16115;SDS011;8162;47.104;15.432;2023-04-25T01:24:32;7.23;;;6.53;;
16115;SDS011;8162;47.104;15.432;2023-04-25T01:27:33;6.40;;;5.80;;
16115;SDS011;8162;47.104;15.432;2023-04-25T01:30:34;10.07;;;6.03;;
16115;SDS011;8162;47.104;15.432;2023-04-25T01:33:37;7.23;;;6.23;;
16115;SDS011;8162;47.104;15.432;2023-04-25T01:36:38;7.93;;;5.57;;
16115;SDS011;8162;47.104;15.432;2023-04-25T01:39:40;6.20;;;5.60;;
16115;SDS011;8162;47.104;15.432;2023-04-25T01:42:42;7.90;;;6.67;;
16115;SDS011;8162;47.104;15.432;2023-04-25T01:45:43;8.03;;;5.87;;
16115;SDS011;8162;47.104;15.432;2023-04-25T01:48:44;6.63;;;5.93;;
16115;SDS011;8162;47.104;15.432;2023-04-25T01:51:45;9.07;;;5.60;;
16115;SDS011;8162;47.104;15.432;2023-04-25T01:54:46;6.80;;;5.50;;
16115;SDS011;8162;47.104;15.432;2023-04-25T01:57:47;7.13;;;5.80;;
16115;SDS011;8162;47.104;15.432;2023-04-25T02:00:49;6.97;;;6.27;;
16115;SDS011;8162;47.104;15.432;2023-04-25T02:03:50;8.93;;;5.50;;
16115;SDS011;8162;47.104;15.432;2023-04-25T02:06:51;8.80;;;6.10;;
16115;SDS011;8162;47.104;15.432;2023-04-25T02:09:52;6.93;;;6.17;;
16115;SDS011;8162;47.104;15.432;2023-04-25T02:12:53;6.60;;;6.00;;
16115;SDS011;8162;47.104;15.432;2023-04-25T02:15:54;6.77;;;6.10;;
16115;SDS011;8162;47.104;15.432;2023-04-25T02:18:55;7.47;;;5.67;;
16115;SDS011;8162;47.104;15.432;2023-04-25T02:21:56;7.40;;;5.97;;
16115;SDS011;8162;47.104;15.432;2023-04-25T02:24:58;5.63;;;4.77;;
16115;SDS011;8162;47.104;15.432;2023-04-25T02:27:59;7.13;;;5.30;;
16115;SDS011;8162;47.104;15.432;2023-04-25T02:31:00;7.63;;;6.10;;
16115;SDS011;8162;47.104;15.432;2023-04-25T02:34:01;9.47;;;5.50;;
16115;SDS011;8162;47.104;15.432;2023-04-25T02:37:02;5.73;;;4.97;;
16115;SDS011;8162;47.104;15.432;2023-04-25T02:40:03;8.33;;;5.23;;
16115;SDS011;8162;47.104;15.432;2023-04-25T02:43:04;6.40;;;5.80;;
16115;SDS011;8162;47.104;15.432;2023-04-25T02:46:05;5.20;;;4.60;;
16115;SDS011;8162;47.104;15.432;2023-04-25T02:49:06;5.83;;;4.30;;
16115;SDS011;8162;47.104;15.432;2023-04-25T02:52:07;5.17;;;4.30;;
16115;SDS011;8162;47.104;15.432;2023-04-25T02:55:08;4.77;;;4.27;;
16115;SDS011;8162;47.104;15.432;2023-04-25T02:58:10;6.63;;;4.47;;
16115;SDS011;8162;47.104;15.432;2023-04-25T03:01:12;5.10;;;4.60;;
16115;SDS011;8162;47.104;15.432;2023-04-25T03:04:13;6.43;;;4.83;;
16115;SDS011;8162;47.104;15.432;2023-04-25T03:07:14;6.83;;;4.67;;
16115;SDS011;8162;47.104;15.432;2023-04-25T03:10:16;7.13;;;4.73;;
16115;SDS011;8162;47.104;15.432;2023-04-25T03:13:17;5.00;;;4.50;;
16115;SDS011;8162;47.104;15.432;2023-04-25T03:16:18;8.90;;;5.23;;
16115;SDS011;8162;47.104;15.432;2023-04-25T03:19:19;12.10;;;6.20;;
16115;SDS011;8162;47.104;15.432;2023-04-25T03:22:20;12.37;;;7.60;;
16115;SDS011;8162;47.104;15.432;2023-04-25T03:25:22;15.30;;;6.87;;
16115;SDS011;8162;47.104;15.432;2023-04-25T03:28:23;11.33;;;6.63;;
16115;SDS011;8162;47.104;15.432;2023-04-25T03:31:24;15.73;;;9.27;;
16115;SDS011;8162;47.104;15.432;2023-04-25T03:34:25;15.43;;;9.63;;
16115;SDS011;8162;47.104;15.432;2023-04-25T03:37:26;20.97;;;11.00;;
16115;SDS011;8162;47.104;15.432;2023-04-25T03:40:27;19.23;;;12.67;;
16115;SDS011;8162;47.104;15.432;2023-04-25T03:43:28;19.20;;;12.30;;
16115;SDS011;8162;47.104;15.432;2023-04-25T03:46:29;22.47;;;13.53;;
16115;SDS011;8162;47.104;15.432;2023-04-25T03:49:30;16.37;;;11.73;;
16115;SDS011;8162;47.104;15.432;2023-04-25T03:52:31;12.20;;;9.90;;
16115;SDS011;8162;47.104;15.432;2023-04-25T03:55:32;15.00;;;9.70;;
16115;SDS011;8162;47.104;15.432;2023-04-25T03:58:33;12.83;;;9.93;;
16115;SDS011;8162;47.104;15.432;2023-04-25T04:01:35;11.77;;;9.10;;
16115;SDS011;8162;47.104;15.432;2023-04-25T04:04:36;9.83;;;8.77;;
16115;SDS011;8162;47.104;15.432;2023-04-25T04:07:37;10.13;;;9.03;;
16115;SDS011;8162;47.104;15.432;2023-04-25T04:10:40;8.80;;;7.90;;
16115;SDS011;8162;47.104;15.432;2023-04-25T04:13:41;9.20;;;8.30;;
16115;SDS011;8162;47.104;15.432;2023-04-25T04:16:42;12.43;;;9.03;;
16115;SDS011;8162;47.104;15.432;2023-04-25T04:19:43;8.43;;;7.47;;
16115;SDS011;8162;47.104;15.432;2023-04-25T04:22:44;10.27;;;7.37;;
16115;SDS011;8162;47.104;15.432;2023-04-25T04:25:45;7.13;;;6.03;;
16115;SDS011;8162;47.104;15.432;2023-04-25T04:28:46;9.00;;;7.33;;
16115;SDS011;8162;47.104;15.432;2023-04-25T04:31:48;6.00;;;5.40;;
16115;SDS011;8162;47.104;15.432;2023-04-25T04:34:49;7.03;;;6.30;;
16115;SDS011;8162;47.104;15.432;2023-04-25T04:37:50;7.27;;;6.47;;
16115;SDS011;8162;47.104;15.432;2023-04-25T04:40:51;6.80;;;5.73;;
16115;SDS011;8162;47.104;15.432;2023-04-25T04:43:53;7.37;;;6.53;;
16115;SDS011;8162;47.104;15.432;2023-04-25T04:46:55;7.83;;;7.07;;
16115;SDS011;8162;47.104;15.432;2023-04-25T04:49:57;7.77;;;7.03;;
16115;SDS011;8162;47.104;15.432;2023-04-25T04:52:58;6.97;;;6.27;;
16115;SDS011;8162;47.104;15.432;2023-04-25T04:56:00;7.07;;;6.40;;
16115;SDS011;8162;47.104;15.432;2023-04-25T04:59:01;7.53;;;6.57;;
16115;SDS011;8162;47.104;15.432;2023-04-25T05:02:02;7.23;;;5.60;;
16115;SDS011;8162;47.104;15.432;2023-04-25T05:05:04;6.47;;;5.87;;
16115;SDS011;8162;47.104;15.432;2023-04-25T05:08:05;8.50;;;5.37;;
16115;SDS011;8162;47.104;15.432;2023-04-25T05:11:06;8.87;;;5.80;;
16115;SDS011;8162;47.104;15.432;2023-04-25T05:14:07;7.13;;;5.23;;
16115;SDS011;8162;47.104;15.432;2023-04-25T05:17:08;4.87;;;4.37;;
16115;SDS011;8162;47.104;15.432;2023-04-25T05:20:10;6.30;;;4.63;;
16115;SDS011;8162;47.104;15.432;2023-04-25T05:23:11;6.63;;;4.83;;
16115;SDS011;8162;47.104;15.432;2023-04-25T05:26:12;7.90;;;4.43;;
16115;SDS011;8162;47.104;15.432;2023-04-25T05:29:16;4.97;;;3.80;;
16115;SDS011;8162;47.104;15.432;2023-04-25T05:32:17;5.07;;;4.40;;
16115;SDS011;8162;47.104;15.432;2023-04-25T05:35:18;6.13;;;4.57;;
16115;SDS011;8162;47.104;15.432;2023-04-25T05:38:19;5.07;;;4.57;;
16115;SDS011;8162;47.104;15.432;2023-04-25T05:41:20;4.67;;;4.17;;
16115;SDS011;8162;47.104;15.432;2023-04-25T05:44:21;6.73;;;4.97;;
16115;SDS011;8162;47.104;15.432;2023-04-25T05:47:22;7.00;;;4.97;;
16115;SDS011;8162;47.104;15.432;2023-04-25T05:50:23;4.73;;;4.33;;
16115;SDS011;8162;47.104;15.432;2023-04-25T05:53:24;8.47;;;4.30;;
16115;SDS011;8162;47.104;15.432;2023-04-25T05:56:25;5.13;;;4.63;;
16115;SDS011;8162;47.104;15.432;2023-04-25T05:59:26;6.00;;;4.77;;
16115;SDS011;8162;47.104;15.432;2023-04-25T06:02:27;4.63;;;3.70;;
16115;SDS011;8162;47.104;15.432;2023-04-25T06:05:28;5.03;;;4.07;;
16115;SDS011;8162;47.104;15.432;2023-04-25T06:08:29;4.27;;;3.87;;
16115;SDS011;8162;47.104;15.432;2023-04-25T06:11:30;4.97;;;4.27;;
16115;SDS011;8162;47.104;15.432;2023-04-25T06:14:32;4.97;;;4.33;;
16115;SDS011;8162;47.104;15.432;2023-04-25T06:17:33;5.27;;;4.60;;
16115;SDS011;8162;47.104;15.432;2023-04-25T06:20:35;5.47;;;4.10;;
16115;SDS011;8162;47.104;15.432;2023-04-25T06:23:36;7.50;;;4.00;;
16115;SDS011;8162;47.104;15.432;2023-04-25T06:26:37;5.87;;;3.97;;
16115;SDS011;8162;47.104;15.432;2023-04-25T06:29:38;5.00;;;4.50;;
16115;SDS011;8162;47.104;15.432;2023-04-25T06:32:39;9.33;;;4.50;;
16115;SDS011;8162;47.104;15.432;2023-04-25T06:35:40;5.07;;;4.07;;
16115;SDS011;8162;47.104;15.432;2023-04-25T06:38:41;6.63;;;5.10;;
16115;SDS011;8162;47.104;15.432;2023-04-25T06:41:42;5.20;;;4.43;;
16115;SDS011;8162;47.104;15.432;2023-04-25T06:44:43;5.30;;;4.40;;
16115;SDS011;8162;47.104;15.432;2023-04-25T06:47:44;6.60;;;3.93;;
16115;SDS011;8162;47.104;15.432;2023-04-25T06:50:45;5.17;;;3.80;;
16115;SDS011;8162;47.104;15.432;2023-04-25T06:53:46;4.40;;;3.73;;
16115;SDS011;8162;47.104;15.432;2023-04-25T06:56:47;3.90;;;3.30;;
16115;SDS011;8162;47.104;15.432;2023-04-25T06:59:48;4.87;;;3.60;;
16115;SDS011;8162;47.104;15.432;2023-04-25T07:02:49;4.70;;;3.37;;
16115;SDS011;8162;47.104;15.432;2023-04-25T07:05:51;5.73;;;3.30;;
16115;SDS011;8162;47.104;15.432;2023-04-25T07:08:52;5.70;;;4.00;;
16115;SDS011;8162;47.104;15.432;2023-04-25T07:11:53;5.10;;;3.47;;
16115;SDS011;8162;47.104;15.432;2023-04-25T07:14:54;4.67;;;3.10;;
16115;SDS011;8162;47.104;15.432;2023-04-25T07:17:55;2.87;;;2.57;;
16115;SDS011;8162;47.104;15.432;2023-04-25T07:20:56;3.30;;;2.50;;
16115;SDS011;8162;47.104;15.432;2023-04-25T07:23:57;4.33;;;2.37;;
16115;SDS011;8162;47.104;15.432;2023-04-25T07:26:58;2.97;;;2.00;;
16115;SDS011;8162;47.104;15.432;2023-04-25T07:29:59;3.60;;;2.27;;
16115;SDS011;8162;47.104;15.432;2023-04-25T07:33:00;2.40;;;2.20;;
16115;SDS011;8162;47.104;15.432;2023-04-25T07:36:01;3.10;;;2.47;;
16115;SDS011;8162;47.104;15.432;2023-04-25T07:39:02;3.23;;;2.60;;
16115;SDS011;8162;47.104;15.432;2023-04-25T07:42:03;4.17;;;2.20;;
16115;SDS011;8162;47.104;15.432;2023-04-25T07:45:07;4.53;;;2.80;;
16115;SDS011;8162;47.104;15.432;2023-04-25T07:48:09;4.10;;;2.60;;
16115;SDS011;8162;47.104;15.432;2023-04-25T07:51:10;5.27;;;1.97;;
16115;SDS011;8162;47.104;15.432;2023-04-25T07:54:13;1.70;;;1.60;;
16115;SDS011;8162;47.104;15.432;2023-04-25T07:57:14;2.33;;;2.13;;
16115;SDS011;8162;47.104;15.432;2023-04-25T08:00:17;1.77;;;1.67;;
16115;SDS011;8162;47.104;15.432;2023-04-25T08:03:18;2.77;;;2.20;;
16115;SDS011;8162;47.104;15.432;2023-04-25T08:06:19;1.47;;;1.37;;
16115;SDS011;8162;47.104;15.432;2023-04-25T08:09:20;1.73;;;1.60;;
16115;SDS011;8162;47.104;15.432;2023-04-25T08:12:21;1.70;;;1.60;;
16115;SDS011;8162;47.104;15.432;2023-04-25T08:15:22;2.70;;;1.30;;
16115;SDS011;8162;47.104;15.432;2023-04-25T08:18:23;6.37;;;1.80;;
16115;SDS011;8162;47.104;15.432;2023-04-25T08:21:24;2.30;;;1.20;;
16115;SDS011;8162;47.104;15.432;2023-04-25T08:24:26;1.57;;;1.30;;
16115;SDS011;8162;47.104;15.432;2023-04-25T08:27:28;4.17;;;1.37;;
16115;SDS011;8162;47.104;15.432;2023-04-25T08:30:29;4.17;;;1.10;;
16115;SDS011;8162;47.104;15.432;2023-04-25T08:33:30;1.43;;;1.10;;
16115;SDS011;8162;47.104;15.432;2023-04-25T08:36:32;3.40;;;1.40;;
16115;SDS011;8162;47.104;15.432;2023-04-25T08:39:33;4.27;;;2.07;;
16115;SDS011;8162;47.104;15.432;2023-04-25T08:42:34;4.47;;;2.27;;
16115;SDS011;8162;47.104;15.432;2023-04-25T08:45:40;3.03;;;2.20;;
16115;SDS011;8162;47.104;15.432;2023-04-25T08:48:42;4.60;;;2.00;;
16115;SDS011;8162;47.104;15.432;2023-04-25T08:51:44;4.53;;;1.60;;
16115;SDS011;8162;47.104;15.432;2023-04-25T08:54:49;2.13;;;1.80;;
16115;SDS011;8162;47.104;15.432;2023-04-25T08:57:51;2.60;;;1.57;;
16115;SDS011;8162;47.104;15.432;2023-04-25T09:00:54;1.87;;;1.20;;
16115;SDS011;8162;47.104;15.432;2023-04-25T09:03:56;1.97;;;1.50;;
16115;SDS011;8162;47.104;15.432;2023-04-25T09:06:57;3.60;;;1.70;;
16115;SDS011;8162;47.104;15.432;2023-04-25T09:09:58;2.23;;;1.40;;
16115;SDS011;8162;47.104;15.432;2023-04-25T09:13:02;1.37;;;1.10;;
16115;SDS011;8162;47.104;15.432;2023-04-25T09:16:04;3.27;;;1.40;;
16115;SDS011;8162;47.104;15.432;2023-04-25T09:19:05;2.00;;;1.37;;
16115;SDS011;8162;47.104;15.432;2023-04-25T09:22:07;2.07;;;1.40;;
16115;SDS011;8162;47.104;15.432;2023-04-25T09:25:09;5.70;;;1.40;;
16115;SDS011;8162;47.104;15.432;2023-04-25T09:28:10;4.17;;;1.20;;
16115;SDS011;8162;47.104;15.432;2023-04-25T09:31:11;1.63;;;1.53;;
16115;SDS011;8162;47.104;15.432;2023-04-25T09:34:12;1.93;;;1.10;;
16115;SDS011;8162;47.104;15.432;2023-04-25T09:37:22;2.70;;;1.23;;
16115;SDS011;8162;47.104;15.432;2023-04-25T09:40:24;1.83;;;1.10;;
16115;SDS011;8162;47.104;15.432;2023-04-25T09:43:25;2.50;;;1.30;;
16115;SDS011;8162;47.104;15.432;2023-04-25T09:46:32;1.33;;;1.00;;
16115;SDS011;8162;47.104;15.432;2023-04-25T09:49:33;3.00;;;1.00;;
16115;SDS011;8162;47.104;15.432;2023-04-25T09:52:34;3.50;;;1.30;;
16115;SDS011;8162;47.104;15.432;2023-04-25T09:55:35;1.43;;;1.20;;
16115;SDS011;8162;47.104;15.432;2023-04-25T09:58:37;1.67;;;1.30;;
16115;SDS011;8162;47.104;15.432;2023-04-25T10:01:39;2.57;;;1.10;;
16115;SDS011;8162;47.104;15.432;2023-04-25T10:04:41;2.60;;;1.13;;
16115;SDS011;8162;47.104;15.432;2023-04-25T10:07:42;1.80;;;1.10;;
16115;SDS011;8162;47.104;15.432;2023-04-25T10:10:43;1.83;;;1.20;;
16115;SDS011;8162;47.104;15.432;2023-04-25T10:13:45;2.23;;;1.30;;
16115;SDS011;8162;47.104;15.432;2023-04-25T10:16:47;1.40;;;0.80;;
16115;SDS011;8162;47.104;15.432;2023-04-25T10:19:49;1.37;;;0.90;;
16115;SDS011;8162;47.104;15.432;2023-04-25T10:22:51;0.97;;;0.87;;
16115;SDS011;8162;47.104;15.432;2023-04-25T10:25:56;1.50;;;1.10;;
16115;SDS011;8162;47.104;15.432;2023-04-25T10:28:58;1.60;;;1.00;;
16115;SDS011;8162;47.104;15.432;2023-04-25T10:31:59;1.30;;;1.10;;
16115;SDS011;8162;47.104;15.432;2023-04-25T10:38:14;1.20;;;1.10;;
16115;SDS011;8162;47.104;15.432;2023-04-25T10:41:15;1.33;;;1.10;;
16115;SDS011;8162;47.104;15.432;2023-04-25T10:44:18;1.53;;;1.10;;
16115;SDS011;8162;47.104;15.432;2023-04-25T10:47:19;2.53;;;1.23;;
16115;SDS011;8162;47.104;15.432;2023-04-25T10:50:38;2.93;;;1.30;;
16115;SDS011;8162;47.104;15.432;2023-04-25T10:53:39;2.53;;;1.00;;
16115;SDS011;8162;47.104;15.432;2023-04-25T10:56:41;1.67;;;1.20;;
16115;SDS011;8162;47.104;15.432;2023-04-25T10:59:44;1.53;;;0.90;;
16115;SDS011;8162;47.104;15.432;2023-04-25T11:02:46;0.90;;;0.90;;
16115;SDS011;8162;47.104;15.432;2023-04-25T11:05:47;2.07;;;1.00;;
16115;SDS011;8162;47.104;15.432;2023-04-25T11:08:50;1.60;;;1.30;;
16115;SDS011;8162;47.104;15.432;2023-04-25T11:11:55;3.67;;;1.27;;
16115;SDS011;8162;47.104;15.432;2023-04-25T11:15:00;2.30;;;0.80;;
16115;SDS011;8162;47.104;15.432;2023-04-25T11:18:01;0.77;;;0.73;;
16115;SDS011;8162;47.104;15.432;2023-04-25T11:21:03;2.10;;;1.30;;
16115;SDS011;8162;47.104;15.432;2023-04-25T11:24:04;1.40;;;0.87;;
16115;SDS011;8162;47.104;15.432;2023-04-25T11:27:05;1.43;;;0.93;;
16115;SDS011;8162;47.104;15.432;2023-04-25T11:30:10;1.40;;;0.90;;
16115;SDS011;8162;47.104;15.432;2023-04-25T11:33:12;2.27;;;0.90;;
16115;SDS011;8162;47.104;15.432;2023-04-25T11:36:13;1.70;;;1.10;;
16115;SDS011;8162;47.104;15.432;2023-04-25T11:39:14;2.20;;;0.90;;
16115;SDS011;8162;47.104;15.432;2023-04-25T11:42:15;3.30;;;0.87;;
16115;SDS011;8162;47.104;15.432;2023-04-25T11:45:16;1.50;;;0.90;;
16115;SDS011;8162;47.104;15.432;2023-04-25T11:48:18;2.20;;;0.80;;
16115;SDS011;8162;47.104;15.432;2023-04-25T11:51:20;0.70;;;0.70;;
16115;SDS011;8162;47.104;15.432;2023-04-25T11:54:21;2.00;;;1.00;;
16115;SDS011;8162;47.104;15.432;2023-04-25T11:57:23;1.30;;;0.93;;
16115;SDS011;8162;47.104;15.432;2023-04-25T12:00:24;3.67;;;1.00;;
16115;SDS011;8162;47.104;15.432;2023-04-25T12:03:26;1.87;;;0.80;;
16115;SDS011;8162;47.104;15.432;2023-04-25T12:06:31;1.97;;;1.50;;
16115;SDS011;8162;47.104;15.432;2023-04-25T12:09:32;4.93;;;1.20;;
16115;SDS011;8162;47.104;15.432;2023-04-25T12:12:34;1.43;;;0.90;;
16115;SDS011;8162;47.104;15.432;2023-04-25T12:15:35;2.10;;;1.00;;
16115;SDS011;8162;47.104;15.432;2023-04-25T12:18:37;1.20;;;1.10;;
16115;SDS011;8162;47.104;15.432;2023-04-25T12:21:38;2.20;;;0.73;;
16115;SDS011;8162;47.104;15.432;2023-04-25T12:24:39;1.60;;;1.00;;
16115;SDS011;8162;47.104;15.432;2023-04-25T12:27:40;1.90;;;0.67;;
16115;SDS011;8162;47.104;15.432;2023-04-25T12:31:01;2.13;;;0.90;;
16115;SDS011;8162;47.104;15.432;2023-04-25T12:34:03;2.27;;;1.00;;
16115;SDS011;8162;47.104;15.432;2023-04-25T12:37:04;1.10;;;0.80;;
16115;SDS011;8162;47.104;15.432;2023-04-25T12:40:05;1.57;;;0.80;;
16115;SDS011;8162;47.104;15.432;2023-04-25T12:43:06;1.37;;;0.80;;
16115;SDS011;8162;47.104;15.432;2023-04-25T12:46:07;0.70;;;0.70;;
16115;SDS011;8162;47.104;15.432;2023-04-25T12:49:09;1.60;;;0.87;;
16115;SDS011;8162;47.104;15.432;2023-04-25T12:52:10;3.43;;;0.90;;
16115;SDS011;8162;47.104;15.432;2023-04-25T12:55:11;2.83;;;0.90;;
16115;SDS011;8162;47.104;15.432;2023-04-25T12:58:12;1.07;;;0.70;;
16115;SDS011;8162;47.104;15.432;2023-04-25T13:01:14;2.57;;;0.63;;
16115;SDS011;8162;47.104;15.432;2023-04-25T13:04:15;2.60;;;0.80;;
16115;SDS011;8162;47.104;15.432;2023-04-25T13:07:16;1.67;;;0.90;;
16115;SDS011;8162;47.104;15.432;2023-04-25T13:10:17;2.87;;;0.90;;
16115;SDS011;8162;47.104;15.432;2023-04-25T13:13:18;0.90;;;0.70;;
16115;SDS011;8162;47.104;15.432;2023-04-25T13:16:20;0.50;;;0.50;;
16115;SDS011;8162;47.104;15.432;2023-04-25T13:19:21;1.47;;;0.90;;
16115;SDS011;8162;47.104;15.432;2023-04-25T13:22:22;0.80;;;0.67;;
16115;SDS011;8162;47.104;15.432;2023-04-25T13:25:23;1.47;;;0.80;;
16115;SDS011;8162;47.104;15.432;2023-04-25T13:28:24;0.50;;;0.50;;
16115;SDS011;8162;47.104;15.432;2023-04-25T13:31:25;0.80;;;0.60;;
16115;SDS011;8162;47.104;15.432;2023-04-25T13:34:27;1.33;;;0.73;;
16115;SDS011;8162;47.104;15.432;2023-04-25T13:37:30;0.83;;;0.77;;
16115;SDS011;8162;47.104;15.432;2023-04-25T13:40:32;3.33;;;0.60;;
16115;SDS011;8162;47.104;15.432;2023-04-25T13:43:33;1.20;;;0.97;;
16115;SDS011;8162;47.104;15.432;2023-04-25T13:46:34;2.47;;;0.90;;
16115;SDS011;8162;47.104;15.432;2023-04-25T13:49:34;2.17;;;0.90;;
16115;SDS011;8162;47.104;15.432;2023-04-25T13:52:35;1.30;;;0.80;;
16115;SDS011;8162;47.104;15.432;2023-04-25T13:55:36;1.57;;;0.83;;
16115;SDS011;8162;47.104;15.432;2023-04-25T13:58:37;2.33;;;1.30;;
16115;SDS011;8162;47.104;15.432;2023-04-25T14:01:38;1.80;;;1.03;;
16115;SDS011;8162;47.104;15.432;2023-04-25T14:04:38;1.33;;;1.10;;
16115;SDS011;8162;47.104;15.432;2023-04-25T14:07:39;1.30;;;0.80;;
16115;SDS011;8162;47.104;15.432;2023-04-25T14:10:40;1.63;;;0.93;;
16115;SDS011;8162;47.104;15.432;2023-04-25T14:13:41;2.20;;;1.00;;
16115;SDS011;8162;47.104;15.432;2023-04-25T14:16:41;1.10;;;1.00;;
16115;SDS011;8162;47.104;15.432;2023-04-25T14:19:42;1.67;;;1.03;;
16115;SDS011;8162;47.104;15.432;2023-04-25T14:22:45;2.77;;;0.90;;
16115;SDS011;8162;47.104;15.432;2023-04-25T14:25:46;2.27;;;1.10;;
16115;SDS011;8162;47.104;15.432;2023-04-25T14:28:47;1.70;;;0.90;;
16115;SDS011;8162;47.104;15.432;2023-04-25T14:31:48;2.83;;;1.13;;
16115;SDS011;8162;47.104;15.432;2023-04-25T14:34:49;0.90;;;0.80;;
16115;SDS011;8162;47.104;15.432;2023-04-25T14:37:49;2.47;;;1.10;;
16115;SDS011;8162;47.104;15.432;2023-04-25T14:40:51;0.80;;;0.80;;
16115;SDS011;8162;47.104;15.432;2023-04-25T14:43:52;2.63;;;0.83;;
16115;SDS011;8162;47.104;15.432;2023-04-25T14:46:53;0.73;;;0.60;;
16115;SDS011;8162;47.104;15.432;2023-04-25T14:49:53;1.63;;;1.13;;
16115;SDS011;8162;47.104;15.432;2023-04-25T14:52:54;1.23;;;1.03;;
16115;SDS011;8162;47.104;15.432;2023-04-25T14:55:58;0.70;;;0.67;;
16115;SDS011;8162;47.104;15.432;2023-04-25T14:58:59;1.13;;;0.83;;
16115;SDS011;8162;47.104;15.432;2023-04-25T15:02:00;1.20;;;0.80;;
16115;SDS011;8162;47.104;15.432;2023-04-25T15:05:01;0.60;;;0.60;;
16115;SDS011;8162;47.104;15.432;2023-04-25T15:08:02;0.83;;;0.80;;
16115;SDS011;8162;47.104;15.432;2023-04-25T15:11:02;1.10;;;0.70;;
16115;SDS011;8162;47.104;15.432;2023-04-25T15:14:03;1.67;;;1.07;;
16115;SDS011;8162;47.104;15.432;2023-04-25T15:17:04;1.03;;;0.50;;
16115;SDS011;8162;47.104;15.432;2023-04-25T15:20:06;1.00;;;0.50;;
16115;SDS011;8162;47.104;15.432;2023-04-25T15:23:07;0.70;;;0.53;;
16115;SDS011;8162;47.104;15.432;2023-04-25T15:26:08;0.67;;;0.60;;
16115;SDS011;8162;47.104;15.432;2023-04-25T15:29:09;0.93;;;0.83;;
16115;SDS011;8162;47.104;15.432;2023-04-25T15:32:10;1.40;;;0.60;;
16115;SDS011;8162;47.104;15.432;2023-04-25T15:35:11;1.03;;;0.70;;
16115;SDS011;8162;47.104;15.432;2023-04-25T15:38:12;3.70;;;0.80;;
16115;SDS011;8162;47.104;15.432;2023-04-25T15:41:13;1.93;;;0.57;;
16115;SDS011;8162;47.104;15.432;2023-04-25T15:44:13;0.83;;;0.67;;
16115;SDS011;8162;47.104;15.432;2023-04-25T15:47:14;0.60;;;0.60;;
16115;SDS011;8162;47.104;15.432;2023-04-25T15:50:15;0.97;;;0.70;;
16115;SDS011;8162;47.104;15.432;2023-04-25T15:53:15;0.70;;;0.60;;
16115;SDS011;8162;47.104;15.432;2023-04-25T15:56:16;2.60;;;0.73;;
16115;SDS011;8162;47.104;15.432;2023-04-25T15:59:17;2.07;;;0.80;;
16115;SDS011;8162;47.104;15.432;2023-04-25T16:02:18;0.83;;;0.60;;
16115;SDS011;8162;47.104;15.432;2023-04-25T16:05:19;1.37;;;1.00;;
16115;SDS011;8162;47.104;15.432;2023-04-25T16:08:19;0.90;;;0.70;;
16115;SDS011;8162;47.104;15.432;2023-04-25T16:11:20;2.60;;;0.90;;
16115;SDS011;8162;47.104;15.432;2023-04-25T16:14:21;1.17;;;0.70;;
16115;SDS011;8162;47.104;15.432;2023-04-25T16:17:22;0.97;;;0.87;;
16115;SDS011;8162;47.104;15.432;2023-04-25T16:20:24;3.60;;;0.90;;
16115;SDS011;8162;47.104;15.432;2023-04-25T16:23:24;0.50;;;0.50;;
16115;SDS011;8162;47.104;15.432;2023-04-25T16:26:25;1.70;;;0.67;;
16115;SDS011;8162;47.104;15.432;2023-04-25T16:29:26;1.77;;;0.60;;
16115;SDS011;8162;47.104;15.432;2023-04-25T16:32:27;0.97;;;0.87;;
16115;SDS011;8162;47.104;15.432;2023-04-25T16:35:28;1.47;;;0.77;;
16115;SDS011;8162;47.104;15.432;2023-04-25T16:38:31;0.80;;;0.80;;
16115;SDS011;8162;47.104;15.432;2023-04-25T16:41:32;2.97;;;0.93;;
16115;SDS011;8162;47.104;15.432;2023-04-25T16:44:33;0.90;;;0.80;;
16115;SDS011;8162;47.104;15.432;2023-04-25T16:47:34;1.10;;;0.70;;
16115;SDS011;8162;47.104;15.432;2023-04-25T16:50:35;4.30;;;0.90;;
16115;SDS011;8162;47.104;15.432;2023-04-25T16:53:36;0.70;;;0.60;;
16115;SDS011;8162;47.104;15.432;2023-04-25T16:56:36;0.93;;;0.90;;
16115;SDS011;8162;47.104;15.432;2023-04-25T16:59:37;1.57;;;0.90;;
16115;SDS011;8162;47.104;15.432;2023-04-25T17:02:38;1.53;;;0.70;;
16115;SDS011;8162;47.104;15.432;2023-04-25T17:05:39;1.43;;;0.80;;
16115;SDS011;8162;47.104;15.432;2023-04-25T17:08:40;1.17;;;0.93;;
16115;SDS011;8162;47.104;15.432;2023-04-25T17:11:41;0.93;;;0.60;;
16115;SDS011;8162;47.104;15.432;2023-04-25T17:14:42;0.80;;;0.60;;
16115;SDS011;8162;47.104;15.432;2023-04-25T17:17:42;1.90;;;0.90;;
16115;SDS011;8162;47.104;15.432;2023-04-25T17:20:43;0.60;;;0.60;;
16115;SDS011;8162;47.104;15.432;2023-04-25T17:23:45;0.83;;;0.60;;
16115;SDS011;8162;47.104;15.432;2023-04-25T17:26:46;1.50;;;1.30;;
16115;SDS011;8162;47.104;15.432;2023-04-25T17:29:47;1.50;;;0.63;;
16115;SDS011;8162;47.104;15.432;2023-04-25T17:32:47;1.57;;;0.93;;
16115;SDS011;8162;47.104;15.432;2023-04-25T17:35:48;1.03;;;0.90;;
16115;SDS011;8162;47.104;15.432;2023-04-25T17:38:49;2.47;;;0.60;;
16115;SDS011;8162;47.104;15.432;2023-04-25T17:41:49;1.03;;;0.60;;
16115;SDS011;8162;47.104;15.432;2023-04-25T17:44:51;0.90;;;0.70;;
16115;SDS011;8162;47.104;15.432;2023-04-25T17:47:53;0.50;;;0.50;;
16115;SDS011;8162;47.104;15.432;2023-04-25T17:50:54;0.70;;;0.63;;
16115;SDS011;8162;47.104;15.432;2023-04-25T17:53:55;0.60;;;0.53;;
16115;SDS011;8162;47.104;15.432;2023-04-25T17:56:56;1.17;;;0.90;;
16115;SDS011;8162;47.104;15.432;2023-04-25T17:59:57;3.73;;;0.80;;
16115;SDS011;8162;47.104;15.432;2023-04-25T18:02:57;0.50;;;0.50;;
16115;SDS011;8162;47.104;15.432;2023-04-25T18:05:58;0.70;;;0.70;;
16115;SDS011;8162;47.104;15.432;2023-04-25T18:09:00;1.10;;;0.77;;
16115;SDS011;8162;47.104;15.432;2023-04-25T18:12:01;1.03;;;0.80;;
16115;SDS011;8162;47.104;15.432;2023-04-25T18:15:04;1.93;;;0.90;;
16115;SDS011;8162;47.104;15.432;2023-04-25T18:18:05;1.33;;;0.80;;